Main page
Satellite images 15-day forecastsClimateMarine weather Cyclones Lightning AirportsFAQ Newsletter About
Weather : Europe Africa North America South America Asia Australia-Oceania Others
Languages Contact

Viru-Viru, Bolivia

latitude: 17-38S, longitude: 063-08W, elevation: 373 m


METAR: SLVR 180300Z 33004KT 8000 NSC 25/19 Q1010
short-TAF: out of date (6658 hours)
long-TAF: SLVR 171655Z 1718/1818 33020G30KT 9999 NSC TX34/1720Z TN19/1810Z BECMG 1800/1802 34010KT FEW020 FM181300 34020G30KT

Time: 23:37 (03:37 UTC)

Current weather observation

The report was made 37 minutes ago, at 03:00 UTC  
Wind 04 kt from the North/Northwest
Temperature 25°C
Humidity 69%
Pressure 1010 hPa
Visibility 8000 m

Change units

Forecast

The report was made 10 hours and 37 minutes ago, at 17:00 UTC  
Forecast valid from 17 at 18 UTC to 18 at 18 UTC
Wind 20 kt from the North/Northwest with gusts up to 30 kt
Visibility 10 km or more
Becoming
from 18 at 00 UTC to 18 at 02 UTC
Wind 10 kt from the North/Northwest
Few clouds at a height of 2000 ft
From 18 at 1300 UTC
Wind 20 kt from the North/Northwest with gusts up to 30 kt
The information on this site is subject to a disclaimer
Weather : Europe Africa North America South America Asia Australia-Oceania Others
Satellite images 15-day forecastsClimateMarine weather Cyclones Lightning AirportsFAQ Languages Contact Newsletter About